createdAt,value
2022-11-29T00:00:30.251Z,67.80
2022-11-29T00:02:03.914Z,67.80
2022-11-29T00:03:37.341Z,67.80
2022-11-29T00:05:10.775Z,67.80
2022-11-29T00:06:45.291Z,67.90
2022-11-29T00:08:18.648Z,67.90
2022-11-29T00:09:51.774Z,67.90
2022-11-29T00:11:45.564Z,67.90
2022-11-29T00:13:19.078Z,68.00
2022-11-29T00:14:52.203Z,67.90
2022-11-29T00:16:24.367Z,67.90
2022-11-29T00:17:57.868Z,67.90
2022-11-29T00:19:32.280Z,67.80
2022-11-29T00:21:07.628Z,67.90
2022-11-29T00:22:42.177Z,67.90
2022-11-29T00:24:15.605Z,67.90
2022-11-29T00:25:48.928Z,67.80
2022-11-29T00:27:22.160Z,67.80
2022-11-29T00:28:56.447Z,68.00
2022-11-29T00:30:29.624Z,68.00
2022-11-29T00:32:02.907Z,68.00
2022-11-29T00:33:36.020Z,68.10
2022-11-29T00:35:10.017Z,68.90
2022-11-29T00:36:43.225Z,68.00
2022-11-29T00:38:17.707Z,68.00
2022-11-29T00:39:50.876Z,68.00
2022-11-29T00:41:24.015Z,68.00
2022-11-29T00:42:57.169Z,68.00
2022-11-29T00:44:30.399Z,67.90
2022-11-29T00:46:03.426Z,67.90
2022-11-29T00:47:36.981Z,67.90
2022-11-29T00:49:10.219Z,67.90
2022-11-29T00:50:43.340Z,68.30
2022-11-29T00:52:16.499Z,67.90
2022-11-29T00:53:50.997Z,67.80
2022-11-29T00:55:24.140Z,67.80
2022-11-29T00:56:57.569Z,67.90
2022-11-29T00:58:31.456Z,67.90
2022-11-29T01:00:06.239Z,67.90
2022-11-29T01:01:39.493Z,67.90
2022-11-29T01:03:12.976Z,67.90
2022-11-29T01:04:46.504Z,67.90
2022-11-29T01:06:19.410Z,67.90
2022-11-29T01:10:33.727Z,68.10
2022-11-29T01:12:07.919Z,68.00
2022-11-29T01:13:42.272Z,67.70
2022-11-29T01:15:15.760Z,67.60
2022-11-29T01:16:49.144Z,67.50
2022-11-29T01:18:21.428Z,67.10
2022-11-29T01:19:54.976Z,67.40
2022-11-29T01:21:28.472Z,67.60
2022-11-29T01:23:01.794Z,67.70
2022-11-29T01:24:35.131Z,67.30
2022-11-29T01:26:13.907Z,67.40
2022-11-29T01:27:48.126Z,68.00
2022-11-29T01:29:21.391Z,68.10
2022-11-29T01:30:54.920Z,67.20
2022-11-29T01:32:28.515Z,67.50
2022-11-29T01:34:04.081Z,67.50
2022-11-29T01:35:36.397Z,68.00
2022-11-29T01:37:09.832Z,67.00
2022-11-29T01:38:43.500Z,67.60
2022-11-29T01:40:16.970Z,67.30
2022-11-29T01:41:51.759Z,67.30
2022-11-29T01:43:24.372Z,67.40
2022-11-29T01:45:23.147Z,67.90
2022-11-29T01:46:58.240Z,68.20
2022-11-29T01:48:34.285Z,68.20
2022-11-29T01:50:10.768Z,68.00
2022-11-29T01:51:49.764Z,68.10
2022-11-29T01:53:22.330Z,68.10
2022-11-29T01:55:01.823Z,67.50
2022-11-29T01:56:36.920Z,68.30
2022-11-29T01:58:12.028Z,68.10
2022-11-29T01:59:49.105Z,67.80
2022-11-29T02:01:22.661Z,68.30
2022-11-29T02:03:05.183Z,67.20
2022-11-29T02:04:42.920Z,68.20
2022-11-29T02:06:17.682Z,68.10
2022-11-29T02:07:55.999Z,68.10
2022-11-29T02:09:29.692Z,68.30
2022-11-29T02:11:58.971Z,67.90
2022-11-29T02:13:43.626Z,69.20
2022-11-29T02:15:37.523Z,68.20
2022-11-29T02:17:25.662Z,68.20
2022-11-29T02:19:22.424Z,68.20
2022-11-29T02:21:17.607Z,68.20
2022-11-29T02:22:58.738Z,68.10
2022-11-29T02:25:03.358Z,68.00
2022-11-29T02:27:16.139Z,68.30
2022-11-29T02:29:52.231Z,68.20
2022-11-29T02:31:53.374Z,68.30
2022-11-29T02:34:16.019Z,68.10
2022-11-29T02:36:39.315Z,68.30
2022-11-29T02:38:35.982Z,68.40
2022-11-29T02:40:55.169Z,68.10
2022-11-29T02:43:11.313Z,68.10
2022-11-29T02:45:04.134Z,68.20
2022-11-29T02:47:09.122Z,68.10
2022-11-29T02:48:57.637Z,68.20
2022-11-29T02:50:42.652Z,68.20
2022-11-29T02:52:26.064Z,68.00
2022-11-29T02:54:07.321Z,68.00
2022-11-29T02:55:52.475Z,68.70
2022-11-29T02:57:41.958Z,68.80
2022-11-29T02:59:31.926Z,68.00
2022-11-29T03:01:17.024Z,68.20
2022-11-29T03:03:00.845Z,68.10
2022-11-29T03:04:44.359Z,68.10
2022-11-29T03:06:33.650Z,68.10
2022-11-29T03:08:18.851Z,68.30
2022-11-29T03:10:05.440Z,68.30
2022-11-29T03:11:49.387Z,68.40
2022-11-29T03:13:42.951Z,68.30
2022-11-29T03:15:30.496Z,68.40
2022-11-29T03:17:22.497Z,68.40
2022-11-29T03:19:13.357Z,69.30
2022-11-29T03:21:09.678Z,68.50
2022-11-29T03:23:01.152Z,68.40
2022-11-29T03:24:47.464Z,68.40
2022-11-29T03:26:31.313Z,68.20
2022-11-29T03:28:12.377Z,68.20
2022-11-29T03:29:53.987Z,68.10
2022-11-29T03:31:35.300Z,68.10
2022-11-29T03:33:17.698Z,68.40
2022-11-29T03:35:03.374Z,68.30
2022-11-29T03:36:49.418Z,68.50
2022-11-29T03:38:33.983Z,68.50
2022-11-29T03:40:11.078Z,68.20
2022-11-29T03:41:54.294Z,68.50
2022-11-29T03:43:38.048Z,68.30
2022-11-29T03:45:21.844Z,68.30
2022-11-29T03:47:02.893Z,68.30
2022-11-29T03:48:43.223Z,68.40
2022-11-29T03:50:24.380Z,68.10
2022-11-29T03:52:14.480Z,68.20
2022-11-29T03:53:55.293Z,68.40
2022-11-29T03:55:50.340Z,68.20
2022-11-29T03:57:34.822Z,68.30
2022-11-29T03:59:28.440Z,68.20
2022-11-29T04:01:50.877Z,68.50
2022-11-29T04:03:52.903Z,68.50
2022-11-29T04:06:11.913Z,68.40
2022-11-29T04:08:10.224Z,68.40
2022-11-29T04:10:09.981Z,68.30
2022-11-29T04:12:35.851Z,68.40
2022-11-29T04:14:58.542Z,68.30
2022-11-29T04:17:22.263Z,68.30
2022-11-29T04:19:45.935Z,68.30
2022-11-29T04:21:40.854Z,68.30
2022-11-29T04:23:55.446Z,68.30
2022-11-29T04:25:46.044Z,68.20
2022-11-29T04:27:41.493Z,68.30
2022-11-29T04:29:32.636Z,68.30
2022-11-29T04:31:27.094Z,68.30
2022-11-29T04:33:57.900Z,68.30
2022-11-29T04:35:42.706Z,68.40
2022-11-29T04:38:07.873Z,68.30
2022-11-29T04:39:57.475Z,68.40
2022-11-29T04:42:10.093Z,68.30
2022-11-29T04:44:12.468Z,68.50
2022-11-29T04:46:19.835Z,68.40
2022-11-29T04:48:11.360Z,68.30
2022-11-29T04:50:13.954Z,68.40
2022-11-29T04:52:24.133Z,68.40
2022-11-29T04:54:10.277Z,68.50
2022-11-29T04:55:56.777Z,68.30
2022-11-29T04:57:41.111Z,69.10
2022-11-29T04:59:26.517Z,68.60
2022-11-29T05:01:07.566Z,68.30
2022-11-29T05:02:55.197Z,68.40
2022-11-29T05:04:41.596Z,68.20
2022-11-29T05:06:31.008Z,68.60
2022-11-29T05:08:24.988Z,68.80
2022-11-29T05:10:13.966Z,68.70
2022-11-29T05:12:04.344Z,68.60
2022-11-29T05:13:54.935Z,68.80
2022-11-29T05:16:01.210Z,68.80
2022-11-29T05:17:51.538Z,69.00
2022-11-29T05:19:56.656Z,68.90
2022-11-29T05:21:48.040Z,69.20
2022-11-29T05:23:45.658Z,69.20
2022-11-29T05:25:42.008Z,69.20
2022-11-29T05:27:28.177Z,69.20
2022-11-29T05:29:11.309Z,68.90
2022-11-29T05:31:09.907Z,68.80
2022-11-29T05:32:57.803Z,69.40
2022-11-29T05:35:03.987Z,69.30
2022-11-29T05:36:44.623Z,69.40
2022-11-29T05:38:32.791Z,69.30
2022-11-29T05:40:41.990Z,69.70
2022-11-29T05:42:43.324Z,69.50
2022-11-29T05:44:36.261Z,69.40
2022-11-29T05:46:17.123Z,69.30
2022-11-29T05:47:57.180Z,69.40
2022-11-29T05:49:42.475Z,69.20
2022-11-29T05:51:28.479Z,69.50
2022-11-29T05:53:17.932Z,69.10
2022-11-29T05:55:11.129Z,70.50
2022-11-29T05:56:56.448Z,69.50
2022-11-29T05:58:46.692Z,69.60
2022-11-29T06:00:25.376Z,69.50
2022-11-29T06:02:13.371Z,69.40
2022-11-29T06:03:59.258Z,69.60
2022-11-29T06:05:40.428Z,69.90
2022-11-29T06:07:20.273Z,69.70
2022-11-29T06:09:05.862Z,70.40
2022-11-29T06:10:45.909Z,69.70
2022-11-29T06:12:23.928Z,69.70
2022-11-29T06:14:09.534Z,69.50
2022-11-29T06:16:29.000Z,69.60
2022-11-29T06:18:23.851Z,69.70
2022-11-29T06:20:14.471Z,69.70
2022-11-29T06:22:07.133Z,69.70
2022-11-29T06:24:10.171Z,69.50
2022-11-29T06:26:07.496Z,69.60
2022-11-29T06:28:00.545Z,69.50
2022-11-29T06:29:50.282Z,69.40
2022-11-29T06:31:30.535Z,69.10
2022-11-29T06:33:17.969Z,69.20
2022-11-29T06:35:00.251Z,69.30
2022-11-29T06:36:41.030Z,69.20
2022-11-29T06:38:24.060Z,69.10
2022-11-29T06:39:57.844Z,69.20
2022-11-29T06:41:32.376Z,69.10
2022-11-29T06:43:07.351Z,69.00
2022-11-29T06:44:42.753Z,69.00
2022-11-29T06:46:44.834Z,69.40
2022-11-29T06:48:26.866Z,69.20
2022-11-29T06:50:23.072Z,69.10
2022-11-29T06:52:16.629Z,69.10
2022-11-29T06:54:01.033Z,69.20
2022-11-29T06:55:51.376Z,69.00
2022-11-29T06:57:35.454Z,69.20
2022-11-29T06:59:31.926Z,69.10
2022-11-29T07:01:24.153Z,69.20
2022-11-29T07:03:35.621Z,69.20
2022-11-29T07:05:19.954Z,69.30
2022-11-29T07:06:54.159Z,69.20
2022-11-29T07:08:28.159Z,69.00
2022-11-29T07:10:11.956Z,68.90
2022-11-29T07:11:48.989Z,69.00
2022-11-29T07:13:24.191Z,69.10
2022-11-29T07:14:58.615Z,68.70
2022-11-29T07:16:41.618Z,68.50
2022-11-29T07:18:29.111Z,68.60
2022-11-29T07:20:16.858Z,69.00
2022-11-29T07:22:05.196Z,68.60
2022-11-29T07:23:51.942Z,68.90
2022-11-29T07:25:38.961Z,68.90
2022-11-29T07:27:21.167Z,68.80
2022-11-29T07:29:10.505Z,68.70
2022-11-29T07:30:57.364Z,68.80
2022-11-29T07:32:50.790Z,68.80
2022-11-29T07:34:37.421Z,68.80
2022-11-29T07:36:25.870Z,68.60
2022-11-29T07:38:15.080Z,68.70
2022-11-29T07:40:00.601Z,68.90
2022-11-29T07:41:45.379Z,68.80
2022-11-29T07:43:34.256Z,68.50
2022-11-29T07:45:21.883Z,69.00
2022-11-29T07:46:55.622Z,68.80
2022-11-29T07:48:29.064Z,67.80
2022-11-29T07:50:02.482Z,67.80
2022-11-29T07:51:37.247Z,67.20
2022-11-29T07:53:17.127Z,67.50
2022-11-29T07:54:50.779Z,68.80
2022-11-29T07:56:24.386Z,68.10
2022-11-29T07:57:57.995Z,67.80
2022-11-29T07:59:31.466Z,67.40
2022-11-29T08:01:05.020Z,67.70
2022-11-29T08:02:39.348Z,68.20
2022-11-29T08:04:13.900Z,68.60
2022-11-29T08:05:48.620Z,67.50
2022-11-29T08:07:23.624Z,68.50
2022-11-29T08:09:00.363Z,68.20
2022-11-29T08:10:35.723Z,68.30
2022-11-29T08:12:09.174Z,68.40
2022-11-29T08:13:42.629Z,67.70
2022-11-29T08:15:16.857Z,67.70
2022-11-29T08:16:50.246Z,68.30
2022-11-29T08:18:23.850Z,67.70
2022-11-29T08:20:02.571Z,67.30
2022-11-29T08:21:37.824Z,67.60
2022-11-29T08:23:14.271Z,67.70
2022-11-29T08:24:47.898Z,68.50
2022-11-29T08:26:25.588Z,67.90
2022-11-29T08:28:05.805Z,68.60
2022-11-29T08:29:39.183Z,68.30
2022-11-29T08:31:14.159Z,67.30
2022-11-29T08:32:51.390Z,68.30
2022-11-29T08:34:26.532Z,67.90
2022-11-29T08:36:07.106Z,68.50
2022-11-29T08:37:46.565Z,68.70
2022-11-29T08:39:22.875Z,68.00
2022-11-29T08:41:02.684Z,67.60
2022-11-29T08:42:36.284Z,68.80
2022-11-29T08:44:10.593Z,67.60
2022-11-29T08:45:44.313Z,68.20
2022-11-29T08:47:43.673Z,67.60
2022-11-29T08:49:17.460Z,67.60
2022-11-29T08:50:52.094Z,68.10
2022-11-29T08:52:45.261Z,68.30
2022-11-29T08:54:19.252Z,67.90
2022-11-29T08:55:54.090Z,67.20
2022-11-29T08:57:42.656Z,67.20
2022-11-29T08:59:16.557Z,67.70
2022-11-29T09:00:50.146Z,67.00
2022-11-29T09:02:23.494Z,67.20
2022-11-29T09:04:10.452Z,67.60
2022-11-29T09:05:44.120Z,67.50
2022-11-29T09:07:17.686Z,67.50
2022-11-29T09:08:51.233Z,67.30
2022-11-29T09:10:25.753Z,67.30
2022-11-29T09:12:00.501Z,67.00
2022-11-29T09:13:33.826Z,67.00
2022-11-29T09:15:11.820Z,66.80
2022-11-29T09:16:45.244Z,67.60
2022-11-29T09:18:18.798Z,66.80
2022-11-29T09:19:52.206Z,67.30
2022-11-29T09:21:28.088Z,66.70
2022-11-29T09:23:02.102Z,67.70
2022-11-29T09:24:35.985Z,67.30
2022-11-29T09:26:12.715Z,67.20
2022-11-29T09:27:47.621Z,67.50
2022-11-29T09:29:21.279Z,66.50
2022-11-29T09:30:54.937Z,67.10
2022-11-29T09:32:28.754Z,67.00
2022-11-29T09:34:03.014Z,67.20
2022-11-29T09:35:36.813Z,67.00
2022-11-29T09:37:10.110Z,67.00
2022-11-29T09:38:43.729Z,67.20
2022-11-29T09:40:22.729Z,67.20
2022-11-29T09:42:22.771Z,67.10
2022-11-29T09:44:09.911Z,67.50
2022-11-29T09:45:49.590Z,67.40
2022-11-29T09:47:50.891Z,67.30
2022-11-29T09:49:48.301Z,67.50
2022-11-29T09:51:31.392Z,67.30
2022-11-29T09:53:31.317Z,66.80
2022-11-29T09:55:37.541Z,66.90
2022-11-29T09:57:14.000Z,67.00
2022-11-29T09:58:55.339Z,66.40
2022-11-29T10:00:33.604Z,66.80
2022-11-29T10:02:21.694Z,66.80
2022-11-29T10:04:02.072Z,67.30
2022-11-29T10:05:46.925Z,66.80
2022-11-29T10:07:35.342Z,66.60
2022-11-29T10:09:18.757Z,66.80
2022-11-29T10:11:01.207Z,66.60
2022-11-29T10:12:43.998Z,66.40
2022-11-29T10:14:27.981Z,66.40
2022-11-29T10:16:14.425Z,66.30
2022-11-29T10:17:54.118Z,66.40
2022-11-29T10:19:34.669Z,66.40
2022-11-29T10:21:15.414Z,66.10
2022-11-29T10:22:55.340Z,65.70
2022-11-29T10:24:31.159Z,65.90
2022-11-29T10:26:08.112Z,65.60
2022-11-29T10:27:42.445Z,65.60
2022-11-29T10:29:18.039Z,64.30
2022-11-29T10:30:55.841Z,65.50
2022-11-29T10:32:33.405Z,65.30
2022-11-29T10:34:15.791Z,65.30
2022-11-29T10:35:56.724Z,65.00
2022-11-29T10:37:32.832Z,65.20
2022-11-29T10:39:14.696Z,64.50
2022-11-29T10:40:56.666Z,65.40
2022-11-29T10:42:53.223Z,65.40
2022-11-29T10:44:28.363Z,65.90
2022-11-29T10:46:02.639Z,65.30
2022-11-29T10:47:37.781Z,65.20
2022-11-29T10:49:18.499Z,65.00
2022-11-29T10:50:53.541Z,65.40
2022-11-29T10:52:28.882Z,65.30
2022-11-29T10:54:19.499Z,65.10
2022-11-29T10:56:01.761Z,65.20
2022-11-29T10:57:35.474Z,64.90
2022-11-29T10:59:21.881Z,63.30
2022-11-29T11:01:00.029Z,64.50
2022-11-29T11:02:35.005Z,64.90
2022-11-29T11:04:16.719Z,64.40
2022-11-29T11:06:14.630Z,64.60
2022-11-29T11:07:58.646Z,64.80
2022-11-29T11:09:37.465Z,64.60
2022-11-29T11:11:16.007Z,64.90
2022-11-29T11:13:04.648Z,65.40
2022-11-29T11:14:39.704Z,64.50
2022-11-29T11:16:20.023Z,64.60
2022-11-29T11:18:00.453Z,63.90
2022-11-29T11:19:38.059Z,64.30
2022-11-29T11:21:14.549Z,63.60
2022-11-29T11:23:00.917Z,65.00
2022-11-29T11:24:39.051Z,64.70
2022-11-29T11:26:15.628Z,64.40
2022-11-29T11:27:49.283Z,64.30
2022-11-29T11:29:28.114Z,63.70
2022-11-29T11:31:08.232Z,64.20
2022-11-29T11:32:41.747Z,64.30
2022-11-29T11:34:31.457Z,64.00
2022-11-29T11:36:14.648Z,64.30
2022-11-29T11:37:57.626Z,64.40
2022-11-29T11:39:33.746Z,63.40
2022-11-29T11:41:22.473Z,63.90
2022-11-29T11:43:00.259Z,64.40
2022-11-29T11:44:48.319Z,64.20
2022-11-29T11:46:23.060Z,64.40
2022-11-29T11:48:00.425Z,63.20
2022-11-29T11:49:47.555Z,64.20
2022-11-29T11:51:26.995Z,64.50
2022-11-29T11:53:04.953Z,64.50
2022-11-29T11:54:38.901Z,64.10
2022-11-29T11:56:15.700Z,63.30
2022-11-29T11:57:58.316Z,64.50
2022-11-29T11:59:31.703Z,64.50
2022-11-29T12:01:18.076Z,63.40
2022-11-29T12:02:51.497Z,64.30
2022-11-29T12:04:31.563Z,63.50
2022-11-29T12:06:37.240Z,64.90
2022-11-29T12:08:14.311Z,65.00
2022-11-29T12:09:57.277Z,64.60
2022-11-29T12:11:38.534Z,64.40
2022-11-29T12:13:20.802Z,64.40
2022-11-29T12:15:01.887Z,64.50
2022-11-29T12:16:41.318Z,64.50
2022-11-29T12:18:25.727Z,64.40
2022-11-29T12:20:20.075Z,64.80
2022-11-29T12:22:03.809Z,64.90
2022-11-29T12:23:46.584Z,64.70
2022-11-29T12:25:28.094Z,64.30
2022-11-29T12:27:06.926Z,64.10
2022-11-29T12:28:42.811Z,64.40
2022-11-29T12:30:17.015Z,64.40
2022-11-29T12:32:12.093Z,64.50
2022-11-29T12:34:01.178Z,64.50
2022-11-29T12:35:57.454Z,64.10
2022-11-29T12:37:42.345Z,64.60
2022-11-29T12:39:43.673Z,64.50
2022-11-29T12:41:35.399Z,64.70
2022-11-29T12:43:30.680Z,64.90
2022-11-29T12:45:25.989Z,64.60
2022-11-29T12:47:35.165Z,64.70
2022-11-29T12:49:17.253Z,64.60
2022-11-29T12:51:03.822Z,64.70
2022-11-29T12:52:52.652Z,64.80
2022-11-29T12:54:53.471Z,64.70
2022-11-29T12:56:38.469Z,64.40
2022-11-29T12:58:23.926Z,64.10
2022-11-29T13:00:09.601Z,64.40
2022-11-29T13:02:18.166Z,64.80
2022-11-29T13:04:03.826Z,64.50
2022-11-29T13:05:58.363Z,64.40
2022-11-29T13:07:43.265Z,64.20
2022-11-29T13:10:18.008Z,64.50
2022-11-29T13:12:40.975Z,64.40
2022-11-29T13:15:04.103Z,63.80
2022-11-29T13:17:14.407Z,63.50
2022-11-29T13:19:05.694Z,63.70
2022-11-29T13:20:48.054Z,63.70
2022-11-29T13:22:42.672Z,64.00
2022-11-29T13:24:26.547Z,64.10
2022-11-29T13:26:10.737Z,63.90
2022-11-29T13:27:56.824Z,62.80
2022-11-29T13:29:31.490Z,63.60
2022-11-29T13:31:10.382Z,63.40
2022-11-29T13:32:55.101Z,63.30
2022-11-29T13:34:39.862Z,64.00
2022-11-29T13:36:21.957Z,63.20
2022-11-29T13:38:04.558Z,63.80
2022-11-29T13:39:58.075Z,63.70
2022-11-29T13:41:38.839Z,64.00
2022-11-29T13:43:24.073Z,63.90
2022-11-29T13:45:08.846Z,63.70
2022-11-29T13:46:51.358Z,63.60
2022-11-29T13:48:48.222Z,63.60
2022-11-29T13:50:40.440Z,64.20
2022-11-29T13:52:42.313Z,63.60
2022-11-29T13:54:34.360Z,63.80
2022-11-29T13:56:08.307Z,63.80
2022-11-29T13:59:50.858Z,64.00
2022-11-29T14:01:26.657Z,64.60
2022-11-29T14:03:30.944Z,63.40
2022-11-29T14:05:07.899Z,63.60
2022-11-29T14:06:42.606Z,63.40
2022-11-29T14:08:42.174Z,63.10
2022-11-29T14:10:28.997Z,63.20
2022-11-29T14:12:18.284Z,63.40
2022-11-29T14:14:02.610Z,64.10
2022-11-29T14:15:36.526Z,63.70
2022-11-29T14:17:47.478Z,63.00
2022-11-29T14:19:33.440Z,64.20
2022-11-29T14:21:10.528Z,64.30
2022-11-29T14:23:16.061Z,63.60
2022-11-29T14:28:06.091Z,64.40
2022-11-29T14:29:56.797Z,64.50
2022-11-29T14:32:04.405Z,64.20
2022-11-29T14:34:01.686Z,64.30
2022-11-29T14:35:44.771Z,64.60
2022-11-29T14:37:57.448Z,64.30
2022-11-29T14:39:45.403Z,65.00
2022-11-29T14:41:31.930Z,64.90
2022-11-29T14:43:21.702Z,64.80
2022-11-29T14:45:00.893Z,64.70
2022-11-29T14:46:34.965Z,64.90
2022-11-29T14:48:28.141Z,64.70
2022-11-29T14:50:09.774Z,64.70
2022-11-29T14:52:23.367Z,64.20
2022-11-29T14:54:13.310Z,65.00
2022-11-29T14:55:48.220Z,64.90
2022-11-29T14:57:53.548Z,63.10
2022-11-29T14:59:51.759Z,65.00
2022-11-29T15:01:27.204Z,65.00
2022-11-29T15:03:12.843Z,63.50
2022-11-29T15:04:47.248Z,65.10
2022-11-29T15:06:28.911Z,64.50
2022-11-29T15:08:14.407Z,65.10
2022-11-29T15:09:52.131Z,65.20
2022-11-29T15:11:37.973Z,64.80
2022-11-29T15:13:20.002Z,65.10
2022-11-29T15:15:09.007Z,64.70
2022-11-29T15:17:13.057Z,64.90
2022-11-29T15:19:40.113Z,65.00
2022-11-29T15:21:32.499Z,65.10
2022-11-29T15:23:12.077Z,65.10
2022-11-29T15:24:54.420Z,64.70
2022-11-29T15:26:27.711Z,65.30
2022-11-29T15:28:03.914Z,64.70
2022-11-29T15:29:37.743Z,65.10
2022-11-29T15:31:15.614Z,64.40
2022-11-29T15:32:49.257Z,65.30
2022-11-29T15:34:33.195Z,64.40
2022-11-29T15:36:10.267Z,65.40
2022-11-29T15:37:45.625Z,64.90
2022-11-29T15:39:32.564Z,64.80
2022-11-29T15:41:06.313Z,65.30
2022-11-29T15:42:42.955Z,64.50
2022-11-29T15:44:23.401Z,66.20
2022-11-29T15:46:00.200Z,65.30
2022-11-29T15:47:33.635Z,65.30
2022-11-29T15:49:24.866Z,64.30
2022-11-29T15:51:06.062Z,65.80
2022-11-29T15:52:40.216Z,65.70
2022-11-29T15:54:20.538Z,65.10
2022-11-29T15:55:58.221Z,65.30
2022-11-29T15:57:37.593Z,65.40
2022-11-29T15:59:21.189Z,65.50
2022-11-29T16:00:58.595Z,65.40
2022-11-29T16:02:34.880Z,65.00
2022-11-29T16:04:19.219Z,65.40
2022-11-29T16:06:04.520Z,65.70
2022-11-29T16:07:41.785Z,65.80
2022-11-29T16:09:21.001Z,65.40
2022-11-29T16:10:54.871Z,65.10
2022-11-29T16:12:28.402Z,64.60
2022-11-29T16:14:17.721Z,64.40
2022-11-29T16:16:08.295Z,65.70
2022-11-29T16:17:41.879Z,65.30
2022-11-29T16:19:36.162Z,64.70
2022-11-29T16:21:26.368Z,65.80
2022-11-29T16:23:20.668Z,65.60
2022-11-29T16:25:04.500Z,65.20
2022-11-29T16:26:43.943Z,65.80
2022-11-29T16:28:17.381Z,65.40
2022-11-29T16:29:54.971Z,64.40
2022-11-29T16:31:38.580Z,65.10
2022-11-29T16:33:24.798Z,64.30
2022-11-29T16:35:14.057Z,65.10
2022-11-29T16:37:04.274Z,64.80
2022-11-29T16:38:48.051Z,65.00
2022-11-29T16:40:25.109Z,64.80
2022-11-29T16:42:16.617Z,64.90
2022-11-29T16:43:57.472Z,65.60
2022-11-29T16:45:37.025Z,64.80
2022-11-29T16:47:18.646Z,64.30
2022-11-29T16:48:54.555Z,64.40
2022-11-29T16:50:30.449Z,65.00
2022-11-29T16:52:25.084Z,64.70
2022-11-29T16:54:24.818Z,64.90
2022-11-29T16:55:58.470Z,65.50
2022-11-29T16:57:39.302Z,63.40
2022-11-29T16:59:24.802Z,64.50
2022-11-29T17:01:00.739Z,64.80
2022-11-29T17:02:38.139Z,63.80
2022-11-29T17:04:11.833Z,63.50
2022-11-29T17:06:00.156Z,63.10
2022-11-29T17:07:38.230Z,63.60
2022-11-29T17:09:22.298Z,65.20
2022-11-29T17:10:55.982Z,65.20
2022-11-29T17:12:29.391Z,63.50
2022-11-29T17:14:03.059Z,63.60
2022-11-29T17:15:36.932Z,63.80
2022-11-29T17:17:15.598Z,63.40
2022-11-29T17:18:52.988Z,66.10
2022-11-29T17:20:28.792Z,64.70
2022-11-29T17:22:02.948Z,63.50
2022-11-29T17:23:36.489Z,63.40
2022-11-29T17:25:11.296Z,63.90
2022-11-29T17:26:45.006Z,65.00
2022-11-29T17:28:18.785Z,65.10
2022-11-29T17:29:52.552Z,63.50
2022-11-29T17:31:26.425Z,63.50
2022-11-29T17:33:04.072Z,63.20
2022-11-29T17:34:39.978Z,65.30
2022-11-29T17:36:17.320Z,63.70
2022-11-29T17:37:50.987Z,64.40
2022-11-29T17:39:24.694Z,64.50
2022-11-29T17:40:58.341Z,63.10
2022-11-29T17:42:32.447Z,63.40
2022-11-29T17:44:06.375Z,63.90
2022-11-29T17:45:40.789Z,64.50
2022-11-29T17:47:14.681Z,63.20
2022-11-29T17:48:48.536Z,64.40
2022-11-29T17:50:23.359Z,63.30
2022-11-29T17:51:56.731Z,63.20
2022-11-29T17:53:30.354Z,63.20
2022-11-29T17:55:03.773Z,64.90
2022-11-29T17:56:37.489Z,63.00
2022-11-29T17:58:11.266Z,64.20
2022-11-29T17:59:45.054Z,63.20
2022-11-29T18:01:22.302Z,63.30
2022-11-29T18:02:55.869Z,65.10
2022-11-29T18:04:29.701Z,63.60
2022-11-29T18:06:04.780Z,63.20
2022-11-29T18:07:58.168Z,63.50
2022-11-29T18:09:31.870Z,63.10
2022-11-29T18:11:07.692Z,63.40
2022-11-29T18:12:41.619Z,64.90
2022-11-29T18:14:17.606Z,63.60
2022-11-29T18:15:51.364Z,64.70
2022-11-29T18:17:25.406Z,63.50
2022-11-29T18:19:03.981Z,62.80
2022-11-29T18:20:37.772Z,64.90
2022-11-29T18:22:15.955Z,63.30
2022-11-29T18:23:49.922Z,65.10
2022-11-29T18:25:42.138Z,63.80
2022-11-29T18:27:15.958Z,63.40
2022-11-29T18:28:50.424Z,63.40
2022-11-29T18:30:27.455Z,64.90
2022-11-29T18:32:04.233Z,64.30
2022-11-29T18:33:38.531Z,62.90
2022-11-29T18:35:14.647Z,63.50
2022-11-29T18:36:49.753Z,63.90
2022-11-29T18:38:25.233Z,64.80
2022-11-29T18:39:59.567Z,63.40
2022-11-29T18:41:34.278Z,63.60
2022-11-29T18:43:08.831Z,64.20
2022-11-29T18:44:42.444Z,64.00
2022-11-29T18:46:19.088Z,64.20
2022-11-29T18:47:52.645Z,65.10
2022-11-29T18:49:26.414Z,63.70
2022-11-29T18:51:03.712Z,63.70
2022-11-29T18:52:40.681Z,65.30
2022-11-29T18:54:17.734Z,63.40
2022-11-29T18:56:02.482Z,64.80
2022-11-29T18:57:36.865Z,65.30
2022-11-29T18:59:14.704Z,63.80
2022-11-29T19:00:48.691Z,64.90
2022-11-29T19:02:22.621Z,63.40
2022-11-29T19:04:01.916Z,63.60
2022-11-29T19:05:35.861Z,64.80
2022-11-29T19:07:09.629Z,63.50
2022-11-29T19:08:45.107Z,63.20
2022-11-29T19:10:20.371Z,64.30
2022-11-29T19:11:54.239Z,63.40
2022-11-29T19:13:40.872Z,63.10
2022-11-29T19:15:15.227Z,63.80
2022-11-29T19:16:51.160Z,63.50
2022-11-29T19:18:30.784Z,64.60
2022-11-29T19:20:04.753Z,64.10
2022-11-29T19:21:39.680Z,64.60
2022-11-29T19:23:14.420Z,64.10
2022-11-29T19:24:50.225Z,64.80
2022-11-29T19:26:31.992Z,63.40
2022-11-29T19:28:11.123Z,65.00
2022-11-29T19:29:47.832Z,64.40
2022-11-29T19:31:27.374Z,63.40
2022-11-29T19:33:01.465Z,65.10
2022-11-29T19:34:39.312Z,63.80
2022-11-29T19:36:16.549Z,64.40
2022-11-29T19:37:50.585Z,65.10
2022-11-29T19:39:28.515Z,64.10
2022-11-29T19:41:11.575Z,65.40
2022-11-29T19:42:48.912Z,65.10
2022-11-29T19:44:29.925Z,63.60
2022-11-29T19:46:09.641Z,64.10
2022-11-29T19:47:44.804Z,65.50
2022-11-29T19:49:22.655Z,63.70
2022-11-29T19:50:59.412Z,65.00
2022-11-29T19:52:33.257Z,63.60
2022-11-29T19:54:09.718Z,63.90
2022-11-29T19:55:44.323Z,65.00
2022-11-29T19:57:20.672Z,64.00
2022-11-29T19:58:59.664Z,65.70
2022-11-29T20:00:34.427Z,64.60
2022-11-29T20:02:10.556Z,64.40
2022-11-29T20:03:48.186Z,64.40
2022-11-29T20:05:22.259Z,64.60
2022-11-29T20:06:56.122Z,64.60
2022-11-29T20:08:36.579Z,64.50
2022-11-29T20:10:11.229Z,65.50
2022-11-29T20:11:45.195Z,65.60
2022-11-29T20:13:19.449Z,64.50
2022-11-29T20:15:05.541Z,64.50
2022-11-29T20:16:44.175Z,65.40
2022-11-29T20:18:51.118Z,65.30
2022-11-29T20:20:34.969Z,65.10
2022-11-29T20:22:08.871Z,65.90
2022-11-29T20:23:46.096Z,64.20
2022-11-29T20:25:27.923Z,64.10
2022-11-29T20:27:05.368Z,64.60
2022-11-29T20:28:41.801Z,64.30
2022-11-29T20:30:17.244Z,65.20
2022-11-29T20:31:57.154Z,64.80
2022-11-29T20:33:31.020Z,65.20
2022-11-29T20:35:06.349Z,65.10
2022-11-29T20:37:30.122Z,65.80
2022-11-29T20:39:18.363Z,66.20
2022-11-29T20:41:03.242Z,66.20
2022-11-29T20:42:57.841Z,66.10
2022-11-29T20:44:38.891Z,66.10
2022-11-29T20:46:13.132Z,66.10
2022-11-29T20:47:54.249Z,66.10
2022-11-29T20:49:28.411Z,66.10
2022-11-29T20:51:03.932Z,66.10
2022-11-29T20:52:49.752Z,66.10
2022-11-29T20:54:26.373Z,66.10
2022-11-29T20:55:59.887Z,66.10
2022-11-29T20:57:33.337Z,66.10
2022-11-29T20:59:06.983Z,65.90
2022-11-29T21:00:41.874Z,66.00
2022-11-29T21:02:17.068Z,66.00
2022-11-29T21:03:50.365Z,66.30
2022-11-29T21:05:24.099Z,66.20
2022-11-29T21:06:57.867Z,66.10
2022-11-29T21:08:34.198Z,66.20
2022-11-29T21:10:09.422Z,66.20
2022-11-29T21:11:43.268Z,66.30
2022-11-29T21:13:18.430Z,66.40
2022-11-29T21:14:52.377Z,66.30
2022-11-29T21:16:32.636Z,66.40
2022-11-29T21:18:06.764Z,66.50
2022-11-29T21:19:40.942Z,66.50
2022-11-29T21:21:25.500Z,66.60
2022-11-29T21:23:08.181Z,66.60
2022-11-29T21:24:57.872Z,66.50
2022-11-29T21:26:41.314Z,66.50
2022-11-29T21:28:17.722Z,66.50
2022-11-29T21:29:51.876Z,66.60
2022-11-29T21:31:26.624Z,66.50
2022-11-29T21:33:03.279Z,66.50
2022-11-29T21:34:36.575Z,66.40
2022-11-29T21:36:11.917Z,66.40
2022-11-29T21:37:46.268Z,66.50
2022-11-29T21:39:20.152Z,66.50
2022-11-29T21:40:54.987Z,66.50
2022-11-29T21:42:31.088Z,66.50
2022-11-29T21:44:07.535Z,66.50
2022-11-29T21:45:41.226Z,66.70
2022-11-29T21:47:14.876Z,66.70
2022-11-29T21:48:47.352Z,66.50
2022-11-29T21:50:20.471Z,66.80
2022-11-29T21:51:57.464Z,66.70
2022-11-29T21:53:30.696Z,66.70
2022-11-29T21:55:07.171Z,66.70
2022-11-29T21:56:41.654Z,66.70
2022-11-29T21:58:14.901Z,66.70
2022-11-29T21:59:48.070Z,66.80
2022-11-29T22:01:21.874Z,66.70
2022-11-29T22:03:00.631Z,66.80
2022-11-29T22:04:33.749Z,66.80
2022-11-29T22:06:10.390Z,66.70
2022-11-29T22:07:43.593Z,66.70
2022-11-29T22:09:16.864Z,66.80